sensor_id;sensor_type;location;lat;lon;timestamp;temperature;humidity
3868;DHT22;1949;48.152;11.528;2023-09-19T00:00:49;22.00;51.10
3868;DHT22;1949;48.152;11.528;2023-09-19T00:03:15;22.00;51.00
3868;DHT22;1949;48.152;11.528;2023-09-19T00:05:43;22.00;51.00
3868;DHT22;1949;48.152;11.528;2023-09-19T00:08:16;22.10;51.00
3868;DHT22;1949;48.152;11.528;2023-09-19T00:10:51;22.10;50.80
3868;DHT22;1949;48.152;11.528;2023-09-19T00:13:19;22.10;50.80
3868;DHT22;1949;48.152;11.528;2023-09-19T00:15:47;22.10;50.70
3868;DHT22;1949;48.152;11.528;2023-09-19T00:18:17;22.20;50.70
3868;DHT22;1949;48.152;11.528;2023-09-19T00:20:45;22.20;50.70
3868;DHT22;1949;48.152;11.528;2023-09-19T00:23:13;22.20;50.50
3868;DHT22;1949;48.152;11.528;2023-09-19T00:25:39;22.30;51.10
3868;DHT22;1949;48.152;11.528;2023-09-19T00:28:06;22.30;50.40
3868;DHT22;1949;48.152;11.528;2023-09-19T00:30:33;22.40;50.40
3868;DHT22;1949;48.152;11.528;2023-09-19T00:33:00;22.40;50.20
3868;DHT22;1949;48.152;11.528;2023-09-19T00:35:29;22.40;50.20
3868;DHT22;1949;48.152;11.528;2023-09-19T00:37:59;22.40;50.10
3868;DHT22;1949;48.152;11.528;2023-09-19T00:40:25;22.40;50.00
3868;DHT22;1949;48.152;11.528;2023-09-19T00:42:57;22.40;50.00
3868;DHT22;1949;48.152;11.528;2023-09-19T00:45:33;22.40;50.10
3868;DHT22;1949;48.152;11.528;2023-09-19T00:48:02;22.40;50.10
3868;DHT22;1949;48.152;11.528;2023-09-19T00:50:32;22.40;50.10
3868;DHT22;1949;48.152;11.528;2023-09-19T00:53:01;22.40;50.20
3868;DHT22;1949;48.152;11.528;2023-09-19T00:55:32;22.40;50.20
3868;DHT22;1949;48.152;11.528;2023-09-19T00:58:01;22.40;50.20
3868;DHT22;1949;48.152;11.528;2023-09-19T01:00:27;22.40;50.20
3868;DHT22;1949;48.152;11.528;2023-09-19T01:03:01;22.40;50.30
3868;DHT22;1949;48.152;11.528;2023-09-19T01:05:33;22.40;50.30
3868;DHT22;1949;48.152;11.528;2023-09-19T01:07:59;22.40;50.30
3868;DHT22;1949;48.152;11.528;2023-09-19T01:10:26;22.50;50.30
3868;DHT22;1949;48.152;11.528;2023-09-19T01:18:55;22.50;50.20
3868;DHT22;1949;48.152;11.528;2023-09-19T01:27:52;22.40;50.20
3868;DHT22;1949;48.152;11.528;2023-09-19T01:30:14;22.40;50.80
3868;DHT22;1949;48.152;11.528;2023-09-19T01:32:41;22.40;50.20
3868;DHT22;1949;48.152;11.528;2023-09-19T01:35:08;22.40;50.40
3868;DHT22;1949;48.152;11.528;2023-09-19T01:37:38;22.50;50.40
3868;DHT22;1949;48.152;11.528;2023-09-19T01:40:10;22.50;50.30
3868;DHT22;1949;48.152;11.528;2023-09-19T01:45:48;22.50;50.20
3868;DHT22;1949;48.152;11.528;2023-09-19T01:54:28;22.40;50.10
3868;DHT22;1949;48.152;11.528;2023-09-19T01:57:29;22.40;50.20
3868;DHT22;1949;48.152;11.528;2023-09-19T02:00:06;22.40;50.20
3868;DHT22;1949;48.152;11.528;2023-09-19T02:02:37;22.40;50.10
3868;DHT22;1949;48.152;11.528;2023-09-19T02:05:04;22.40;50.10
3868;DHT22;1949;48.152;11.528;2023-09-19T02:07:32;22.40;50.10
3868;DHT22;1949;48.152;11.528;2023-09-19T02:10:04;22.30;50.10
3868;DHT22;1949;48.152;11.528;2023-09-19T02:12:36;22.40;50.20
3868;DHT22;1949;48.152;11.528;2023-09-19T02:15:03;22.40;50.10
3868;DHT22;1949;48.152;11.528;2023-09-19T02:17:29;22.40;50.00
3868;DHT22;1949;48.152;11.528;2023-09-19T02:19:56;22.40;50.00
3868;DHT22;1949;48.152;11.528;2023-09-19T02:22:25;22.40;50.00
3868;DHT22;1949;48.152;11.528;2023-09-19T02:24:54;22.40;50.00
3868;DHT22;1949;48.152;11.528;2023-09-19T02:27:20;22.30;50.00
3868;DHT22;1949;48.152;11.528;2023-09-19T02:29:46;22.30;50.00
3868;DHT22;1949;48.152;11.528;2023-09-19T02:32:12;22.30;50.00
3868;DHT22;1949;48.152;11.528;2023-09-19T02:34:38;22.40;50.10
3868;DHT22;1949;48.152;11.528;2023-09-19T02:37:05;22.30;50.00
3868;DHT22;1949;48.152;11.528;2023-09-19T02:39:32;22.30;49.90
3868;DHT22;1949;48.152;11.528;2023-09-19T02:41:58;22.30;49.90
3868;DHT22;1949;48.152;11.528;2023-09-19T02:44:24;22.20;50.00
3868;DHT22;1949;48.152;11.528;2023-09-19T02:46:50;22.20;50.00
3868;DHT22;1949;48.152;11.528;2023-09-19T02:49:18;22.20;50.00
3868;DHT22;1949;48.152;11.528;2023-09-19T02:51:44;22.20;50.10
3868;DHT22;1949;48.152;11.528;2023-09-19T02:54:18;22.20;50.10
3868;DHT22;1949;48.152;11.528;2023-09-19T02:56:48;22.20;50.00
3868;DHT22;1949;48.152;11.528;2023-09-19T02:59:15;22.20;50.10
3868;DHT22;1949;48.152;11.528;2023-09-19T03:01:44;22.20;50.00
3868;DHT22;1949;48.152;11.528;2023-09-19T03:04:14;22.20;50.10
3868;DHT22;1949;48.152;11.528;2023-09-19T03:06:46;22.20;50.10
3868;DHT22;1949;48.152;11.528;2023-09-19T03:09:14;22.20;50.20
3868;DHT22;1949;48.152;11.528;2023-09-19T03:11:41;22.20;50.10
3868;DHT22;1949;48.152;11.528;2023-09-19T03:14:08;22.20;50.20
3868;DHT22;1949;48.152;11.528;2023-09-19T03:16:35;22.10;50.00
3868;DHT22;1949;48.152;11.528;2023-09-19T03:19:03;22.10;50.10
3868;DHT22;1949;48.152;11.528;2023-09-19T03:21:30;22.10;50.10
3868;DHT22;1949;48.152;11.528;2023-09-19T03:23:56;22.10;50.10
3868;DHT22;1949;48.152;11.528;2023-09-19T03:26:24;22.10;50.00
3868;DHT22;1949;48.152;11.528;2023-09-19T03:28:52;22.10;50.00
3868;DHT22;1949;48.152;11.528;2023-09-19T03:31:18;22.20;50.00
3868;DHT22;1949;48.152;11.528;2023-09-19T03:33:45;22.20;50.00
3868;DHT22;1949;48.152;11.528;2023-09-19T03:36:11;22.20;50.00
3868;DHT22;1949;48.152;11.528;2023-09-19T03:38:41;22.20;50.00
3868;DHT22;1949;48.152;11.528;2023-09-19T03:41:07;22.20;50.00
3868;DHT22;1949;48.152;11.528;2023-09-19T03:43:33;21.90;49.70
3868;DHT22;1949;48.152;11.528;2023-09-19T03:46:01;22.20;49.90
3868;DHT22;1949;48.152;11.528;2023-09-19T03:48:30;22.20;50.00
3868;DHT22;1949;48.152;11.528;2023-09-19T03:50:56;22.20;49.90
3868;DHT22;1949;48.152;11.528;2023-09-19T03:53:24;22.20;49.80
3868;DHT22;1949;48.152;11.528;2023-09-19T03:55:50;22.20;49.80
3868;DHT22;1949;48.152;11.528;2023-09-19T03:58:18;22.20;49.80
3868;DHT22;1949;48.152;11.528;2023-09-19T04:00:46;22.20;49.80
3868;DHT22;1949;48.152;11.528;2023-09-19T04:03:15;22.20;49.80
3868;DHT22;1949;48.152;11.528;2023-09-19T04:05:48;22.20;49.80
3868;DHT22;1949;48.152;11.528;2023-09-19T04:08:14;22.30;49.90
3868;DHT22;1949;48.152;11.528;2023-09-19T04:10:43;22.20;49.80
3868;DHT22;1949;48.152;11.528;2023-09-19T04:13:10;22.20;49.70
3868;DHT22;1949;48.152;11.528;2023-09-19T04:15:36;22.20;49.80
3868;DHT22;1949;48.152;11.528;2023-09-19T04:18:03;22.20;49.80
3868;DHT22;1949;48.152;11.528;2023-09-19T04:20:29;22.20;49.80
3868;DHT22;1949;48.152;11.528;2023-09-19T04:22:55;22.30;49.90
3868;DHT22;1949;48.152;11.528;2023-09-19T04:25:21;22.30;49.80
3868;DHT22;1949;48.152;11.528;2023-09-19T04:27:54;22.30;49.80
3868;DHT22;1949;48.152;11.528;2023-09-19T04:30:20;22.30;49.70
3868;DHT22;1949;48.152;11.528;2023-09-19T04:32:46;22.30;49.60
3868;DHT22;1949;48.152;11.528;2023-09-19T04:35:16;22.20;49.60
3868;DHT22;1949;48.152;11.528;2023-09-19T04:37:42;22.20;49.60
3868;DHT22;1949;48.152;11.528;2023-09-19T04:40:09;22.20;49.60
3868;DHT22;1949;48.152;11.528;2023-09-19T04:42:43;22.10;49.60
3868;DHT22;1949;48.152;11.528;2023-09-19T04:45:15;22.20;49.80
3868;DHT22;1949;48.152;11.528;2023-09-19T04:47:41;22.20;49.90
3868;DHT22;1949;48.152;11.528;2023-09-19T04:50:10;22.20;49.80
3868;DHT22;1949;48.152;11.528;2023-09-19T04:52:42;22.10;49.60
3868;DHT22;1949;48.152;11.528;2023-09-19T04:55:13;22.10;49.80
3868;DHT22;1949;48.152;11.528;2023-09-19T04:57:50;22.10;49.80
3868;DHT22;1949;48.152;11.528;2023-09-19T05:00:18;22.10;49.80
3868;DHT22;1949;48.152;11.528;2023-09-19T05:02:49;22.10;49.80
3868;DHT22;1949;48.152;11.528;2023-09-19T05:05:17;22.00;49.70
3868;DHT22;1949;48.152;11.528;2023-09-19T05:07:45;22.00;49.70
3868;DHT22;1949;48.152;11.528;2023-09-19T05:10:13;22.00;49.70
3868;DHT22;1949;48.152;11.528;2023-09-19T05:12:41;21.90;49.60
3868;DHT22;1949;48.152;11.528;2023-09-19T05:15:07;21.90;49.80
3868;DHT22;1949;48.152;11.528;2023-09-19T05:17:34;21.90;49.80
3868;DHT22;1949;48.152;11.528;2023-09-19T05:20:03;21.90;49.80
3868;DHT22;1949;48.152;11.528;2023-09-19T05:22:43;21.90;49.70
3868;DHT22;1949;48.152;11.528;2023-09-19T05:25:10;21.90;49.90
3868;DHT22;1949;48.152;11.528;2023-09-19T05:27:36;21.90;50.00
3868;DHT22;1949;48.152;11.528;2023-09-19T05:30:03;21.90;50.00
3868;DHT22;1949;48.152;11.528;2023-09-19T05:32:29;21.90;49.80
3868;DHT22;1949;48.152;11.528;2023-09-19T05:35:05;21.90;49.80
3868;DHT22;1949;48.152;11.528;2023-09-19T05:37:35;22.00;49.70
3868;DHT22;1949;48.152;11.528;2023-09-19T05:40:02;21.90;49.70
3868;DHT22;1949;48.152;11.528;2023-09-19T05:42:34;21.90;49.70
3868;DHT22;1949;48.152;11.528;2023-09-19T05:45:04;21.90;49.60
3868;DHT22;1949;48.152;11.528;2023-09-19T05:47:32;21.90;49.80
3868;DHT22;1949;48.152;11.528;2023-09-19T05:49:58;21.90;49.80
3868;DHT22;1949;48.152;11.528;2023-09-19T05:52:25;21.90;49.70
3868;DHT22;1949;48.152;11.528;2023-09-19T05:54:51;21.90;49.70
3868;DHT22;1949;48.152;11.528;2023-09-19T05:57:17;21.90;49.70
3868;DHT22;1949;48.152;11.528;2023-09-19T05:59:45;21.80;49.60
3868;DHT22;1949;48.152;11.528;2023-09-19T06:02:11;21.80;49.80
3868;DHT22;1949;48.152;11.528;2023-09-19T06:04:39;21.90;50.00
3868;DHT22;1949;48.152;11.528;2023-09-19T06:07:13;21.90;49.90
3868;DHT22;1949;48.152;11.528;2023-09-19T06:09:42;22.00;49.80
3868;DHT22;1949;48.152;11.528;2023-09-19T06:12:08;22.00;49.70
3868;DHT22;1949;48.152;11.528;2023-09-19T06:14:40;22.00;49.80
3868;DHT22;1949;48.152;11.528;2023-09-19T06:17:11;22.00;49.80
3868;DHT22;1949;48.152;11.528;2023-09-19T06:19:38;22.00;49.60
3868;DHT22;1949;48.152;11.528;2023-09-19T06:22:04;22.00;49.80
3868;DHT22;1949;48.152;11.528;2023-09-19T06:24:30;22.00;49.80
3868;DHT22;1949;48.152;11.528;2023-09-19T06:26:56;22.00;49.80
3868;DHT22;1949;48.152;11.528;2023-09-19T06:29:24;22.00;49.70
3868;DHT22;1949;48.152;11.528;2023-09-19T06:31:56;22.00;49.80
3868;DHT22;1949;48.152;11.528;2023-09-19T06:34:23;22.00;50.30
3868;DHT22;1949;48.152;11.528;2023-09-19T06:36:52;22.00;49.70
3868;DHT22;1949;48.152;11.528;2023-09-19T06:39:18;22.00;49.60
3868;DHT22;1949;48.152;11.528;2023-09-19T06:41:47;22.00;49.70
3868;DHT22;1949;48.152;11.528;2023-09-19T06:44:21;22.00;49.80
3868;DHT22;1949;48.152;11.528;2023-09-19T06:46:52;22.00;49.70
3868;DHT22;1949;48.152;11.528;2023-09-19T06:49:18;22.00;49.70
3868;DHT22;1949;48.152;11.528;2023-09-19T06:51:45;22.00;49.80
3868;DHT22;1949;48.152;11.528;2023-09-19T06:54:13;22.00;49.80
3868;DHT22;1949;48.152;11.528;2023-09-19T06:56:39;22.10;49.80
3868;DHT22;1949;48.152;11.528;2023-09-19T06:59:05;22.10;49.70
3868;DHT22;1949;48.152;11.528;2023-09-19T07:01:35;22.00;49.60
3868;DHT22;1949;48.152;11.528;2023-09-19T07:04:05;22.00;49.70
3868;DHT22;1949;48.152;11.528;2023-09-19T07:06:33;22.00;49.90
3868;DHT22;1949;48.152;11.528;2023-09-19T07:08:59;22.00;49.90
3868;DHT22;1949;48.152;11.528;2023-09-19T07:11:26;22.00;49.70
3868;DHT22;1949;48.152;11.528;2023-09-19T07:13:55;21.90;49.70
3868;DHT22;1949;48.152;11.528;2023-09-19T07:16:22;21.90;49.90
3868;DHT22;1949;48.152;11.528;2023-09-19T07:18:57;21.90;49.90
3868;DHT22;1949;48.152;11.528;2023-09-19T07:21:24;22.00;50.00
3868;DHT22;1949;48.152;11.528;2023-09-19T07:23:50;22.00;49.90
3868;DHT22;1949;48.152;11.528;2023-09-19T07:26:17;21.90;49.90
3868;DHT22;1949;48.152;11.528;2023-09-19T07:28:45;21.90;50.00
3868;DHT22;1949;48.152;11.528;2023-09-19T07:31:11;22.00;50.00
3868;DHT22;1949;48.152;11.528;2023-09-19T07:33:38;22.00;50.10
3868;DHT22;1949;48.152;11.528;2023-09-19T07:36:06;22.10;50.10
3868;DHT22;1949;48.152;11.528;2023-09-19T07:38:36;22.10;50.00
3868;DHT22;1949;48.152;11.528;2023-09-19T07:41:03;22.10;50.00
3868;DHT22;1949;48.152;11.528;2023-09-19T07:43:31;22.10;50.10
3868;DHT22;1949;48.152;11.528;2023-09-19T07:46:02;22.10;50.10
3868;DHT22;1949;48.152;11.528;2023-09-19T07:48:28;22.20;50.10
3868;DHT22;1949;48.152;11.528;2023-09-19T07:50:54;22.20;50.10
3868;DHT22;1949;48.152;11.528;2023-09-19T07:53:21;22.20;50.30
3868;DHT22;1949;48.152;11.528;2023-09-19T07:55:50;22.20;49.90
3868;DHT22;1949;48.152;11.528;2023-09-19T07:58:17;22.20;50.00
3868;DHT22;1949;48.152;11.528;2023-09-19T08:00:45;22.20;50.00
3868;DHT22;1949;48.152;11.528;2023-09-19T08:03:13;22.30;50.10
3868;DHT22;1949;48.152;11.528;2023-09-19T08:05:40;22.30;50.20
3868;DHT22;1949;48.152;11.528;2023-09-19T08:08:11;22.30;50.10
3868;DHT22;1949;48.152;11.528;2023-09-19T08:10:39;22.40;50.20
3868;DHT22;1949;48.152;11.528;2023-09-19T08:13:07;22.30;50.00
3868;DHT22;1949;48.152;11.528;2023-09-19T08:15:43;22.40;50.10
3868;DHT22;1949;48.152;11.528;2023-09-19T08:18:09;22.40;50.20
3868;DHT22;1949;48.152;11.528;2023-09-19T08:20:40;22.40;50.20
3868;DHT22;1949;48.152;11.528;2023-09-19T08:23:08;22.40;50.10
3868;DHT22;1949;48.152;11.528;2023-09-19T08:25:40;22.40;50.10
3868;DHT22;1949;48.152;11.528;2023-09-19T08:28:08;22.40;50.10
3868;DHT22;1949;48.152;11.528;2023-09-19T08:30:34;22.40;50.10
3868;DHT22;1949;48.152;11.528;2023-09-19T08:33:09;22.40;49.90
3868;DHT22;1949;48.152;11.528;2023-09-19T08:35:38;22.50;50.00
3868;DHT22;1949;48.152;11.528;2023-09-19T08:38:10;22.50;50.10
3868;DHT22;1949;48.152;11.528;2023-09-19T08:40:42;22.60;50.00
3868;DHT22;1949;48.152;11.528;2023-09-19T08:43:16;22.60;49.90
3868;DHT22;1949;48.152;11.528;2023-09-19T08:45:42;22.60;49.90
3868;DHT22;1949;48.152;11.528;2023-09-19T08:48:24;22.60;49.70
3868;DHT22;1949;48.152;11.528;2023-09-19T08:50:58;22.60;49.70
3868;DHT22;1949;48.152;11.528;2023-09-19T08:53:47;22.60;49.60
3868;DHT22;1949;48.152;11.528;2023-09-19T08:56:24;22.60;49.60
3868;DHT22;1949;48.152;11.528;2023-09-19T08:59:02;22.60;49.40
3868;DHT22;1949;48.152;11.528;2023-09-19T09:01:33;22.60;49.50
3868;DHT22;1949;48.152;11.528;2023-09-19T09:04:05;22.60;49.50
3868;DHT22;1949;48.152;11.528;2023-09-19T09:06:47;22.60;49.60
3868;DHT22;1949;48.152;11.528;2023-09-19T09:09:25;22.60;49.40
3868;DHT22;1949;48.152;11.528;2023-09-19T09:11:58;22.60;49.60
3868;DHT22;1949;48.152;11.528;2023-09-19T09:14:25;22.60;49.40
3868;DHT22;1949;48.152;11.528;2023-09-19T09:16:51;22.60;49.20
3868;DHT22;1949;48.152;11.528;2023-09-19T09:19:27;22.70;49.30
3868;DHT22;1949;48.152;11.528;2023-09-19T09:22:08;22.70;49.10
3868;DHT22;1949;48.152;11.528;2023-09-19T09:24:35;22.70;49.00
3868;DHT22;1949;48.152;11.528;2023-09-19T09:27:13;22.70;49.00
3868;DHT22;1949;48.152;11.528;2023-09-19T09:29:43;22.70;49.00
3868;DHT22;1949;48.152;11.528;2023-09-19T09:35:07;22.80;48.80
3868;DHT22;1949;48.152;11.528;2023-09-19T09:37:36;22.80;48.80
3868;DHT22;1949;48.152;11.528;2023-09-19T09:40:04;22.80;48.70
3868;DHT22;1949;48.152;11.528;2023-09-19T09:42:42;22.90;48.80
3868;DHT22;1949;48.152;11.528;2023-09-19T09:45:16;22.90;48.60
3868;DHT22;1949;48.152;11.528;2023-09-19T09:48:01;22.90;48.60
3868;DHT22;1949;48.152;11.528;2023-09-19T09:50:47;23.00;48.50
3868;DHT22;1949;48.152;11.528;2023-09-19T09:53:27;23.00;48.50
3868;DHT22;1949;48.152;11.528;2023-09-19T09:56:03;23.10;48.50
3868;DHT22;1949;48.152;11.528;2023-09-19T09:59:00;23.20;48.40
3868;DHT22;1949;48.152;11.528;2023-09-19T10:01:47;23.30;48.50
3868;DHT22;1949;48.152;11.528;2023-09-19T10:04:28;23.30;48.20
3868;DHT22;1949;48.152;11.528;2023-09-19T10:07:05;23.30;48.00
3868;DHT22;1949;48.152;11.528;2023-09-19T10:09:46;23.30;48.00
3868;DHT22;1949;48.152;11.528;2023-09-19T10:12:19;23.30;48.00
3868;DHT22;1949;48.152;11.528;2023-09-19T10:14:47;23.20;47.90
3868;DHT22;1949;48.152;11.528;2023-09-19T10:17:18;23.30;48.00
3868;DHT22;1949;48.152;11.528;2023-09-19T10:19:58;23.30;47.80
3868;DHT22;1949;48.152;11.528;2023-09-19T10:22:26;23.30;47.90
3868;DHT22;1949;48.152;11.528;2023-09-19T10:24:57;23.40;47.80
3868;DHT22;1949;48.152;11.528;2023-09-19T10:27:27;23.40;47.70
3868;DHT22;1949;48.152;11.528;2023-09-19T10:29:59;23.40;47.70
3868;DHT22;1949;48.152;11.528;2023-09-19T10:32:28;23.40;47.60
3868;DHT22;1949;48.152;11.528;2023-09-19T10:34:59;23.40;47.50
3868;DHT22;1949;48.152;11.528;2023-09-19T10:37:27;23.40;47.50
3868;DHT22;1949;48.152;11.528;2023-09-19T10:40:05;23.40;47.50
3868;DHT22;1949;48.152;11.528;2023-09-19T10:42:38;23.40;47.40
3868;DHT22;1949;48.152;11.528;2023-09-19T10:45:15;23.40;47.20
3868;DHT22;1949;48.152;11.528;2023-09-19T10:47:46;23.40;47.10
3868;DHT22;1949;48.152;11.528;2023-09-19T10:50:23;23.40;47.20
3868;DHT22;1949;48.152;11.528;2023-09-19T10:53:03;23.40;47.40
3868;DHT22;1949;48.152;11.528;2023-09-19T10:55:32;23.40;47.90
3868;DHT22;1949;48.152;11.528;2023-09-19T10:57:59;23.40;47.30
3868;DHT22;1949;48.152;11.528;2023-09-19T11:00:53;23.40;47.30
3868;DHT22;1949;48.152;11.528;2023-09-19T11:03:21;23.40;47.30
3868;DHT22;1949;48.152;11.528;2023-09-19T11:06:17;23.40;47.30
3868;DHT22;1949;48.152;11.528;2023-09-19T11:09:03;23.50;47.30
3868;DHT22;1949;48.152;11.528;2023-09-19T11:11:46;23.50;47.40
3868;DHT22;1949;48.152;11.528;2023-09-19T11:28:28;23.80;46.50
3868;DHT22;1949;48.152;11.528;2023-09-19T11:30:54;23.80;46.40
3868;DHT22;1949;48.152;11.528;2023-09-19T11:36:13;23.80;45.80
3868;DHT22;1949;48.152;11.528;2023-09-19T11:49:31;24.00;45.40
3868;DHT22;1949;48.152;11.528;2023-09-19T11:52:03;24.00;45.20
3868;DHT22;1949;48.152;11.528;2023-09-19T11:54:36;24.00;45.00
3868;DHT22;1949;48.152;11.528;2023-09-19T11:57:11;24.10;45.10
3868;DHT22;1949;48.152;11.528;2023-09-19T11:59:38;24.10;45.20
3868;DHT22;1949;48.152;11.528;2023-09-19T12:02:18;24.20;45.10
3868;DHT22;1949;48.152;11.528;2023-09-19T12:04:55;24.40;45.10
3868;DHT22;1949;48.152;11.528;2023-09-19T12:07:21;24.40;44.80
3868;DHT22;1949;48.152;11.528;2023-09-19T12:09:49;24.50;44.80
3868;DHT22;1949;48.152;11.528;2023-09-19T12:12:28;24.60;44.50
3868;DHT22;1949;48.152;11.528;2023-09-19T12:14:57;24.60;44.80
3868;DHT22;1949;48.152;11.528;2023-09-19T12:17:43;24.60;44.10
3868;DHT22;1949;48.152;11.528;2023-09-19T12:20:11;24.60;44.30
3868;DHT22;1949;48.152;11.528;2023-09-19T12:26:12;24.60;44.30
3868;DHT22;1949;48.152;11.528;2023-09-19T12:28:41;24.70;44.00
3868;DHT22;1949;48.152;11.528;2023-09-19T12:31:11;24.70;43.90
3868;DHT22;1949;48.152;11.528;2023-09-19T12:33:39;24.80;43.80
3868;DHT22;1949;48.152;11.528;2023-09-19T12:36:22;24.90;43.70
3868;DHT22;1949;48.152;11.528;2023-09-19T12:38:56;24.80;43.70
3868;DHT22;1949;48.152;11.528;2023-09-19T12:41:25;24.80;43.60
3868;DHT22;1949;48.152;11.528;2023-09-19T12:43:55;24.70;43.70
3868;DHT22;1949;48.152;11.528;2023-09-19T12:46:29;24.70;43.60
3868;DHT22;1949;48.152;11.528;2023-09-19T12:49:22;24.90;44.00
3868;DHT22;1949;48.152;11.528;2023-09-19T12:51:51;25.00;44.10
3868;DHT22;1949;48.152;11.528;2023-09-19T12:54:20;25.20;43.50
3868;DHT22;1949;48.152;11.528;2023-09-19T12:56:54;25.30;43.20
3868;DHT22;1949;48.152;11.528;2023-09-19T12:59:29;25.30;42.90
3868;DHT22;1949;48.152;11.528;2023-09-19T13:02:06;25.30;42.80
3868;DHT22;1949;48.152;11.528;2023-09-19T13:04:33;25.20;43.30
3868;DHT22;1949;48.152;11.528;2023-09-19T13:07:00;25.30;44.20
3868;DHT22;1949;48.152;11.528;2023-09-19T13:09:32;25.40;43.70
3868;DHT22;1949;48.152;11.528;2023-09-19T13:12:00;25.50;43.70
3868;DHT22;1949;48.152;11.528;2023-09-19T13:14:30;25.60;43.80
3868;DHT22;1949;48.152;11.528;2023-09-19T13:17:07;25.70;43.80
3868;DHT22;1949;48.152;11.528;2023-09-19T13:19:46;25.90;43.60
3868;DHT22;1949;48.152;11.528;2023-09-19T13:22:43;26.10;43.50
3868;DHT22;1949;48.152;11.528;2023-09-19T13:25:20;26.30;43.60
3868;DHT22;1949;48.152;11.528;2023-09-19T13:27:56;26.50;43.30
3868;DHT22;1949;48.152;11.528;2023-09-19T13:30:24;26.60;42.90
3868;DHT22;1949;48.152;11.528;2023-09-19T13:33:05;26.70;42.60
3868;DHT22;1949;48.152;11.528;2023-09-19T13:35:38;26.80;42.50
3868;DHT22;1949;48.152;11.528;2023-09-19T13:38:11;26.80;42.30
3868;DHT22;1949;48.152;11.528;2023-09-19T13:40:38;26.90;42.40
3868;DHT22;1949;48.152;11.528;2023-09-19T13:43:06;26.90;42.10
3868;DHT22;1949;48.152;11.528;2023-09-19T13:45:32;26.90;42.10
3868;DHT22;1949;48.152;11.528;2023-09-19T13:47:58;27.00;42.10
3868;DHT22;1949;48.152;11.528;2023-09-19T13:50:24;27.10;42.00
3868;DHT22;1949;48.152;11.528;2023-09-19T13:52:53;27.10;41.80
3868;DHT22;1949;48.152;11.528;2023-09-19T13:55:24;27.30;41.80
3868;DHT22;1949;48.152;11.528;2023-09-19T13:57:50;27.40;41.10
3868;DHT22;1949;48.152;11.528;2023-09-19T14:00:20;27.50;40.80
3868;DHT22;1949;48.152;11.528;2023-09-19T14:02:49;27.50;40.60
3868;DHT22;1949;48.152;11.528;2023-09-19T14:05:16;27.40;39.90
3868;DHT22;1949;48.152;11.528;2023-09-19T14:07:43;27.40;40.00
3868;DHT22;1949;48.152;11.528;2023-09-19T14:10:10;27.40;40.00
3868;DHT22;1949;48.152;11.528;2023-09-19T14:12:37;27.50;39.90
3868;DHT22;1949;48.152;11.528;2023-09-19T14:15:05;27.60;39.60
3868;DHT22;1949;48.152;11.528;2023-09-19T14:17:33;27.70;39.50
3868;DHT22;1949;48.152;11.528;2023-09-19T14:19:59;27.80;39.40
3868;DHT22;1949;48.152;11.528;2023-09-19T14:22:25;27.90;39.40
3868;DHT22;1949;48.152;11.528;2023-09-19T14:24:51;28.00;39.30
3868;DHT22;1949;48.152;11.528;2023-09-19T14:27:21;28.10;39.10
3868;DHT22;1949;48.152;11.528;2023-09-19T14:29:47;28.20;38.90
3868;DHT22;1949;48.152;11.528;2023-09-19T14:32:17;28.30;38.80
3868;DHT22;1949;48.152;11.528;2023-09-19T14:34:43;28.50;38.70
3868;DHT22;1949;48.152;11.528;2023-09-19T14:37:10;28.60;38.30
3868;DHT22;1949;48.152;11.528;2023-09-19T14:39:38;28.70;37.90
3868;DHT22;1949;48.152;11.528;2023-09-19T14:42:05;28.70;37.90
3868;DHT22;1949;48.152;11.528;2023-09-19T14:44:31;28.80;38.00
3868;DHT22;1949;48.152;11.528;2023-09-19T14:46:57;29.00;37.90
3868;DHT22;1949;48.152;11.528;2023-09-19T14:49:25;29.10;37.50
3868;DHT22;1949;48.152;11.528;2023-09-19T14:51:54;29.20;37.30
3868;DHT22;1949;48.152;11.528;2023-09-19T14:54:21;29.30;37.30
3868;DHT22;1949;48.152;11.528;2023-09-19T14:57:03;29.30;36.90
3868;DHT22;1949;48.152;11.528;2023-09-19T14:59:38;29.30;37.00
3868;DHT22;1949;48.152;11.528;2023-09-19T15:02:23;29.20;36.70
3868;DHT22;1949;48.152;11.528;2023-09-19T15:04:58;28.90;36.80
3868;DHT22;1949;48.152;11.528;2023-09-19T15:07:25;28.70;36.90
3868;DHT22;1949;48.152;11.528;2023-09-19T15:09:55;28.50;37.00
3868;DHT22;1949;48.152;11.528;2023-09-19T15:12:21;28.30;37.20
3868;DHT22;1949;48.152;11.528;2023-09-19T15:14:47;28.20;37.50
3868;DHT22;1949;48.152;11.528;2023-09-19T15:17:21;28.00;37.70
3868;DHT22;1949;48.152;11.528;2023-09-19T15:19:49;27.80;37.80
3868;DHT22;1949;48.152;11.528;2023-09-19T15:22:15;27.70;37.90
3868;DHT22;1949;48.152;11.528;2023-09-19T15:24:41;27.60;37.90
3868;DHT22;1949;48.152;11.528;2023-09-19T15:27:08;27.50;37.90
3868;DHT22;1949;48.152;11.528;2023-09-19T15:29:36;27.40;37.90
3868;DHT22;1949;48.152;11.528;2023-09-19T15:32:03;27.30;38.00
3868;DHT22;1949;48.152;11.528;2023-09-19T15:34:30;27.20;38.00
3868;DHT22;1949;48.152;11.528;2023-09-19T15:36:57;27.00;37.80
3868;DHT22;1949;48.152;11.528;2023-09-19T15:39:24;26.90;38.00
3868;DHT22;1949;48.152;11.528;2023-09-19T15:41:50;26.80;38.10
3868;DHT22;1949;48.152;11.528;2023-09-19T15:44:18;26.70;38.20
3868;DHT22;1949;48.152;11.528;2023-09-19T15:46:48;26.60;38.80
3868;DHT22;1949;48.152;11.528;2023-09-19T15:49:28;26.50;38.30
3868;DHT22;1949;48.152;11.528;2023-09-19T15:55:18;26.30;38.70
3868;DHT22;1949;48.152;11.528;2023-09-19T15:57:52;26.30;38.70
3868;DHT22;1949;48.152;11.528;2023-09-19T16:00:23;26.40;38.60
3868;DHT22;1949;48.152;11.528;2023-09-19T16:02:55;26.30;38.50
3868;DHT22;1949;48.152;11.528;2023-09-19T16:05:21;26.20;38.40
3868;DHT22;1949;48.152;11.528;2023-09-19T16:07:55;26.20;38.60
3868;DHT22;1949;48.152;11.528;2023-09-19T16:10:23;26.10;38.70
3868;DHT22;1949;48.152;11.528;2023-09-19T16:12:56;26.10;38.70
3868;DHT22;1949;48.152;11.528;2023-09-19T16:15:22;26.00;38.80
3868;DHT22;1949;48.152;11.528;2023-09-19T16:17:50;26.00;38.90
3868;DHT22;1949;48.152;11.528;2023-09-19T16:20:19;25.90;38.90
3868;DHT22;1949;48.152;11.528;2023-09-19T16:22:46;25.90;38.90
3868;DHT22;1949;48.152;11.528;2023-09-19T16:25:12;25.90;39.00
3868;DHT22;1949;48.152;11.528;2023-09-19T16:27:39;25.80;38.90
3868;DHT22;1949;48.152;11.528;2023-09-19T16:30:12;25.80;38.90
3868;DHT22;1949;48.152;11.528;2023-09-19T16:32:41;25.70;38.90
3868;DHT22;1949;48.152;11.528;2023-09-19T16:35:13;25.70;39.00
3868;DHT22;1949;48.152;11.528;2023-09-19T16:37:39;25.60;39.00
3868;DHT22;1949;48.152;11.528;2023-09-19T16:40:25;25.60;39.00
3868;DHT22;1949;48.152;11.528;2023-09-19T16:42:50;25.60;39.10
3868;DHT22;1949;48.152;11.528;2023-09-19T16:45:19;25.50;39.10
3868;DHT22;1949;48.152;11.528;2023-09-19T16:47:49;25.40;39.10
3868;DHT22;1949;48.152;11.528;2023-09-19T16:50:21;25.50;39.30
3868;DHT22;1949;48.152;11.528;2023-09-19T16:52:49;25.50;39.30
3868;DHT22;1949;48.152;11.528;2023-09-19T16:55:15;25.40;39.20
3868;DHT22;1949;48.152;11.528;2023-09-19T16:57:41;25.40;39.30
3868;DHT22;1949;48.152;11.528;2023-09-19T17:00:10;25.40;39.30
3868;DHT22;1949;48.152;11.528;2023-09-19T17:02:42;25.30;39.30